Time;durP1;ratioP1;P1;durP2;ratioP2;P2;SDS_P1;SDS_P2;PMS_P1;PMS_P2;Temp;Humidity;BMP_temperature;BMP_pressure;BME280_temperature;BME280_humidity;BME280_pressure;Samples;Min_cycle;Max_cycle;Signal;HPM_P1;HPM_P2
2022/08/14 00:00:11;;;;;;;13.13;8.05;;;;;;;20.13;68.19;101049.00;5069403;28;20040;-67
2022/08/14 00:02:37;;;;;;;13.85;7.75;;;;;;;20.21;65.09;101047.72;5069608;28;20051;-67
2022/08/14 00:05:03;;;;;;;12.95;8.45;;;;;;;20.21;66.22;101044.19;5069552;28;20984;-67
2022/08/14 00:07:29;;;;;;;13.60;8.27;;;;;;;20.22;67.53;101045.81;5069547;28;20063;-67
2022/08/14 00:09:54;;;;;;;12.43;7.57;;;;;;;20.17;68.41;101038.47;5069480;28;20476;-67
2022/08/14 00:12:20;;;;;;;10.63;7.70;;;;;;;20.11;68.51;101043.00;5069496;28;20365;-67
2022/08/14 00:14:45;;;;;;;11.40;8.35;;;;;;;20.10;68.35;101027.84;5069278;28;20073;-67
2022/08/14 00:17:10;;;;;;;12.52;8.63;;;;;;;20.10;65.89;101030.56;5069533;28;20032;-67
2022/08/14 00:19:36;;;;;;;10.82;8.13;;;;;;;20.09;66.49;101033.50;5069424;28;20078;-67
2022/08/14 00:22:02;;;;;;;12.18;8.10;;;;;;;20.06;66.69;101029.44;5069487;28;20033;-67
2022/08/14 00:24:27;;;;;;;13.82;8.63;;;;;;;20.06;68.63;101028.63;5069235;28;20032;-67
2022/08/14 00:26:52;;;;;;;13.93;8.43;;;;;;;20.07;68.21;101025.66;5069232;28;20388;-67
2022/08/14 00:29:18;;;;;;;10.65;8.60;;;;;;;20.07;66.23;101022.94;5069221;28;20040;-67
2022/08/14 00:31:43;;;;;;;11.57;7.70;;;;;;;20.06;66.34;101021.31;5069147;28;20028;-67
2022/08/14 00:34:09;;;;;;;10.43;7.35;;;;;;;19.99;66.82;101019.88;5069507;28;20029;-67
2022/08/14 00:36:35;;;;;;;10.90;7.68;;;;;;;19.97;67.90;101005.78;5069076;28;20489;-67
2022/08/14 00:39:00;;;;;;;13.50;7.90;;;;;;;19.95;66.96;100999.81;5069102;28;20040;-67
2022/08/14 00:41:30;;;;;;;10.40;8.20;;;;;;;19.95;69.09;101006.03;5069010;28;20110;-67
2022/08/14 00:43:55;;;;;;;15.90;8.88;;;;;;;19.91;69.59;101002.19;5069128;28;20031;-67
2022/08/14 00:46:21;;;;;;;14.80;7.75;;;;;;;19.87;67.19;101001.09;5068964;28;20036;-67
2022/08/14 00:48:47;;;;;;;11.30;8.55;;;;;;;19.84;67.44;100999.69;5069025;28;20032;-67
2022/08/14 00:51:14;;;;;;;11.98;8.10;;;;;;;19.79;67.04;101001.53;5069003;28;20062;-67
2022/08/14 00:53:41;;;;;;;12.13;8.18;;;;;;;19.72;68.91;100992.78;5067687;28;20044;-67
2022/08/14 00:56:07;;;;;;;11.68;8.07;;;;;;;19.69;67.27;100992.22;5068899;28;20098;-67
2022/08/14 00:58:34;;;;;;;15.18;8.98;;;;;;;19.72;69.83;100987.38;5069280;28;20383;-67
2022/08/14 01:01:11;;;;;;;11.55;8.70;;;;;;;19.79;66.20;100990.72;5072862;28;20032;-67
2022/08/14 01:03:38;;;;;;;13.25;8.90;;;;;;;19.74;67.67;100994.19;5073054;28;20020;-67
2022/08/14 01:06:07;;;;;;;12.52;8.88;;;;;;;19.72;70.77;100981.97;5072739;28;20459;-67
2022/08/14 01:08:33;;;;;;;11.30;8.30;;;;;;;19.68;66.97;100987.91;5072857;28;20657;-67
2022/08/14 01:10:59;;;;;;;14.73;8.70;;;;;;;19.73;67.92;100989.00;5072851;28;20063;-67
2022/08/14 01:13:28;;;;;;;12.65;8.05;;;;;;;19.75;66.31;100974.16;5071416;28;20492;-67
2022/08/14 01:15:56;;;;;;;13.98;7.97;;;;;;;19.78;67.30;100973.66;5072711;28;20024;-67
2022/08/14 01:21:14;;;;;;;13.73;8.70;;;;;;;19.77;67.31;100966.59;5073022;28;20030;-67
2022/08/14 01:23:41;;;;;;;;;;;;;;;19.82;65.44;100961.25;5072999;28;20036;-67
2022/08/14 01:26:08;;;;;;;12.73;8.85;;;;;;;19.74;68.38;100958.19;5072466;28;19917;-67
2022/08/14 01:28:36;;;;;;;13.85;7.93;;;;;;;19.69;68.03;100953.53;5072574;28;20085;-67
2022/08/14 01:31:05;;;;;;;11.68;8.48;;;;;;;19.65;67.44;100955.91;5072450;28;20028;-67
2022/08/14 01:33:30;;;;;;;12.38;8.98;;;;;;;19.56;67.55;100962.81;5072396;28;20377;-67
2022/08/14 01:35:59;;;;;;;11.43;7.72;;;;;;;19.53;68.81;100949.81;5072068;28;20071;-67
2022/08/14 01:38:27;;;;;;;15.40;9.25;;;;;;;19.41;68.27;100949.13;5072301;28;20051;-67
2022/08/14 01:40:53;;;;;;;13.80;8.55;;;;;;;19.37;70.85;100948.00;5072488;28;20084;-67
2022/08/14 01:43:18;;;;;;;13.38;8.65;;;;;;;19.34;70.12;100943.94;5072227;28;20129;-67
2022/08/14 01:45:44;;;;;;;12.40;8.35;;;;;;;19.35;71.51;100950.97;5072208;28;20040;-67
2022/08/14 01:48:10;;;;;;;11.63;7.97;;;;;;;19.29;71.82;100948.47;5072066;28;20478;-67
2022/08/14 01:50:36;;;;;;;14.93;8.88;;;;;;;19.22;70.68;100948.63;5072108;28;20493;-64
2022/08/14 01:53:02;;;;;;;13.40;8.25;;;;;;;19.17;73.51;100943.97;5071997;28;20533;-64
2022/08/14 01:55:30;;;;;;;18.40;8.98;;;;;;;19.09;71.58;100951.72;5071851;28;20035;-64
2022/08/14 01:57:57;;;;;;;12.75;8.40;;;;;;;19.06;73.63;100947.63;5072015;28;20032;-64
2022/08/14 02:00:23;;;;;;;12.63;8.27;;;;;;;19.00;74.85;100952.16;5071803;28;20495;-64
2022/08/14 02:02:48;;;;;;;12.32;8.75;;;;;;;18.92;74.60;100947.19;5071774;28;20043;-64
2022/08/14 02:05:14;;;;;;;12.65;8.60;;;;;;;18.84;73.90;100958.44;5071639;28;20024;-66
2022/08/14 02:07:42;;;;;;;12.02;9.68;;;;;;;18.82;74.44;100949.75;5071665;28;20025;-66
2022/08/14 02:10:09;;;;;;;12.00;8.05;;;;;;;18.76;73.99;100951.56;5071893;28;20387;-66
2022/08/14 02:12:35;;;;;;;14.40;9.45;;;;;;;18.69;77.22;100940.06;5070869;28;20031;-66
2022/08/14 02:15:00;;;;;;;13.98;8.43;;;;;;;18.71;76.30;100947.94;5071676;28;20036;-66
2022/08/14 02:17:27;;;;;;;12.50;8.48;;;;;;;18.60;77.32;100939.69;5071468;28;20071;-67
2022/08/14 02:19:53;;;;;;;11.98;8.13;;;;;;;18.54;77.37;100947.97;5071602;28;20472;-67
2022/08/14 02:22:18;;;;;;;10.07;7.35;;;;;;;18.48;76.45;100947.06;5071481;28;20078;-67
2022/08/14 02:24:44;;;;;;;13.60;9.23;;;;;;;18.43;77.98;100946.97;5071379;28;20564;-67
2022/08/14 02:27:12;;;;;;;12.57;8.73;;;;;;;18.37;76.75;100947.97;5071354;28;20384;-67
2022/08/14 02:29:39;;;;;;;12.43;8.20;;;;;;;18.31;76.48;100949.78;5071347;28;20031;-67
2022/08/14 02:32:05;;;;;;;11.95;8.15;;;;;;;18.24;76.16;100942.91;5071398;28;20043;-67
2022/08/14 02:34:35;;;;;;;13.80;8.70;;;;;;;18.17;76.58;100943.06;5071283;28;20028;-67
2022/08/14 02:37:04;;;;;;;13.38;9.73;;;;;;;18.03;75.23;100939.88;5070842;28;20049;-67
2022/08/14 02:39:30;;;;;;;16.58;9.23;;;;;;;17.94;73.66;100942.13;5070894;28;20043;-67
2022/08/14 02:41:57;;;;;;;15.73;10.43;;;;;;;17.87;75.08;100941.47;5071183;28;20040;-67
2022/08/14 02:44:23;;;;;;;13.45;9.18;;;;;;;17.83;73.43;100940.31;5070927;28;20087;-67
2022/08/14 02:46:51;;;;;;;15.77;10.27;;;;;;;17.82;75.61;100936.00;5071076;28;20060;-67
2022/08/14 02:49:17;;;;;;;13.20;8.68;;;;;;;17.82;73.55;100943.28;5071116;28;20035;-67
2022/08/14 02:51:47;;;;;;;12.82;9.55;;;;;;;17.78;75.94;100932.09;5070684;28;20036;-67
2022/08/14 02:54:13;;;;;;;14.15;8.82;;;;;;;17.78;76.35;100937.50;5070711;28;20494;-67
2022/08/14 02:56:38;;;;;;;15.48;9.07;;;;;;;17.78;76.32;100936.69;5070884;28;20032;-67
2022/08/14 02:59:06;;;;;;;13.82;8.93;;;;;;;17.74;77.95;100926.38;5070643;28;20068;-67
2022/08/14 03:01:33;;;;;;;12.77;8.43;;;;;;;17.71;77.12;100928.72;5070673;28;20133;-67
2022/08/14 03:03:58;;;;;;;15.43;9.20;;;;;;;17.61;76.95;100928.56;5070691;28;20117;-67
2022/08/14 03:06:24;;;;;;;13.52;8.93;;;;;;;17.61;77.14;100925.88;5070546;28;20074;-67
2022/08/14 03:08:52;;;;;;;13.38;8.45;;;;;;;17.59;78.24;100927.97;5070604;28;20063;-67
2022/08/14 03:11:18;;;;;;;13.65;9.35;;;;;;;17.53;78.00;100922.50;5070522;28;20546;-67
2022/08/14 03:13:50;;;;;;;13.57;8.80;;;;;;;17.46;78.32;100916.41;5070444;28;20024;-67
2022/08/14 03:16:20;;;;;;;15.35;10.07;;;;;;;17.35;76.88;100919.19;5070467;28;20058;-67
2022/08/14 03:18:47;;;;;;;14.82;9.50;;;;;;;17.23;77.76;100921.88;5070305;28;20024;-67
2022/08/14 03:21:16;;;;;;;18.13;10.30;;;;;;;17.18;78.20;100919.09;5070441;28;20027;-67
2022/08/14 03:23:45;;;;;;;14.00;9.02;;;;;;;17.21;79.06;100916.75;5069160;28;20079;-67
2022/08/14 03:26:16;;;;;;;13.95;9.63;;;;;;;17.22;79.00;100912.19;5070266;28;20035;-67
2022/08/14 03:28:44;;;;;;;15.23;8.90;;;;;;;17.16;78.68;100907.72;5070056;28;20033;-67
2022/08/14 03:31:10;;;;;;;12.65;9.10;;;;;;;17.07;79.30;100899.22;5070150;28;20028;-67
2022/08/14 03:33:38;;;;;;;15.43;10.85;;;;;;;17.09;79.97;100911.38;5070081;28;20028;-67
2022/08/14 03:36:11;;;;;;;15.23;9.27;;;;;;;17.09;80.45;100908.69;5069955;28;20048;-67
2022/08/14 03:38:41;;;;;;;14.55;9.18;;;;;;;17.11;79.63;100911.16;5070116;28;20172;-67
2022/08/14 03:41:13;;;;;;;15.93;10.18;;;;;;;17.04;79.11;100903.19;5069911;28;20032;-67
2022/08/14 03:43:38;;;;;;;;;;;;;;;17.08;76.34;100904.38;5070477;28;20040;-67
2022/08/14 03:46:05;;;;;;;16.05;10.57;;;;;;;16.96;79.64;100906.25;5069887;28;20003;-65
2022/08/14 03:48:31;;;;;;;16.33;10.32;;;;;;;16.98;79.86;100906.03;5069990;28;20473;-64
2022/08/14 03:50:56;;;;;;;16.42;10.80;;;;;;;16.93;80.02;100912.13;5069743;28;20124;-64
2022/08/14 03:53:21;;;;;;;14.85;9.95;;;;;;;16.90;80.87;100912.59;5069902;28;20036;-64
2022/08/14 03:55:47;;;;;;;15.07;10.23;;;;;;;16.84;80.01;100905.44;5069753;28;20067;-64
2022/08/14 03:58:14;;;;;;;13.82;9.75;;;;;;;16.82;80.61;100907.56;5069657;28;20112;-64
2022/08/14 04:00:39;;;;;;;15.32;10.23;;;;;;;16.81;80.32;100906.75;5069638;28;20056;-64
2022/08/14 04:03:07;;;;;;;16.75;10.93;;;;;;;16.80;80.67;100901.63;5069511;28;20075;-64
2022/08/14 04:05:37;;;;;;;15.98;11.38;;;;;;;16.76;80.81;100905.78;5069477;28;20034;-64
2022/08/14 04:08:03;;;;;;;15.88;10.90;;;;;;;16.74;80.79;100897.13;5069518;28;20028;-64
2022/08/14 04:10:29;;;;;;;16.02;10.60;;;;;;;16.69;79.51;100900.53;5069604;28;20074;-64
2022/08/14 04:12:59;;;;;;;15.52;10.15;;;;;;;16.68;81.30;100896.19;5068194;28;20040;-64
2022/08/14 04:15:25;;;;;;;16.45;11.27;;;;;;;16.69;80.98;100895.16;5069420;28;20120;-64
2022/08/14 04:17:52;;;;;;;14.45;9.85;;;;;;;16.68;81.65;100901.59;5069490;28;20099;-64
2022/08/14 04:20:18;;;;;;;15.43;10.27;;;;;;;16.63;80.42;100885.31;5069437;28;20031;-64
2022/08/14 04:22:44;;;;;;;18.05;11.25;;;;;;;16.61;80.75;100893.66;5069303;28;20059;-64
2022/08/14 04:25:10;;;;;;;17.63;10.93;;;;;;;16.57;80.10;100891.66;5069242;28;20362;-64
2022/08/14 04:27:36;;;;;;;16.90;11.48;;;;;;;16.53;81.07;100885.09;5069257;28;20039;-64
2022/08/14 04:30:06;;;;;;;26.90;13.13;;;;;;;16.56;81.36;100882.75;5069349;28;20431;-64
2022/08/14 04:32:32;;;;;;;19.55;11.95;;;;;;;16.56;81.89;100877.38;5069280;28;20047;-64
2022/08/14 04:34:59;;;;;;;17.02;11.07;;;;;;;16.56;81.42;100884.63;5068817;28;20097;-64
2022/08/14 04:45:39;;;;;;;17.80;11.38;;;;;;;16.63;83.55;100883.44;5069060;28;20062;-64
2022/08/14 04:48:13;;;;;;;19.40;11.73;;;;;;;16.66;83.25;100863.28;5069117;28;20064;-64
2022/08/14 04:50:44;;;;;;;19.20;11.80;;;;;;;16.67;82.90;100866.81;5069206;28;20039;-64
2022/08/14 04:53:16;;;;;;;17.17;10.73;;;;;;;16.61;81.55;100865.88;5069183;28;20028;-64
2022/08/14 04:55:47;;;;;;;16.42;11.05;;;;;;;16.67;83.44;100867.63;5068993;28;20051;-64
2022/08/14 04:58:16;;;;;;;17.97;12.60;;;;;;;16.72;82.78;100875.00;5069151;28;20036;-64
2022/08/14 05:00:42;;;;;;;17.35;11.40;;;;;;;16.82;83.67;100869.84;5068934;28;20028;-65
2022/08/14 05:03:09;;;;;;;18.88;12.18;;;;;;;16.85;83.08;100864.81;5069346;28;20066;-64
2022/08/14 05:05:35;;;;;;;22.00;12.75;;;;;;;16.84;80.33;100870.44;5068939;28;20031;-64
2022/08/14 05:08:11;;;;;;;19.15;13.80;;;;;;;16.89;80.97;100853.56;5068684;28;20051;-64
2022/08/14 05:10:39;;;;;;;16.35;12.00;;;;;;;16.92;80.93;100863.88;5068835;28;20024;-64
2022/08/14 05:13:05;;;;;;;18.30;11.20;;;;;;;16.97;81.73;100856.69;5068890;28;21111;-64
2022/08/14 05:15:36;;;;;;;18.25;11.85;;;;;;;17.06;82.28;100860.66;5069107;28;20024;-64
2022/08/14 05:18:30;;;;;;;19.13;12.30;;;;;;;17.13;82.51;100855.13;5069125;28;20094;-64
2022/08/14 05:20:59;;;;;;;19.52;12.15;;;;;;;17.27;81.84;100856.47;5066461;28;20071;-64
2022/08/14 05:23:34;;;;;;;17.23;10.60;;;;;;;17.32;81.10;100858.47;5068836;28;20415;-64
2022/08/14 05:26:04;;;;;;;16.27;11.40;;;;;;;17.40;80.74;100865.34;5068712;28;20545;-64
2022/08/14 05:28:32;;;;;;;18.17;12.07;;;;;;;17.50;81.25;100866.34;5068675;28;20062;-64
2022/08/14 05:31:01;;;;;;;20.08;12.70;;;;;;;17.62;80.85;100855.47;5068839;28;20058;-64
2022/08/14 05:33:29;;;;;;;17.83;12.30;;;;;;;17.72;80.03;100855.66;5068666;28;20513;-64
2022/08/14 05:35:59;;;;;;;19.73;12.27;;;;;;;17.83;79.87;100862.06;5068596;28;20049;-64
2022/08/14 05:38:32;;;;;;;21.83;13.98;;;;;;;17.92;80.06;100852.53;5068755;28;20060;-64
2022/08/14 05:41:01;;;;;;;21.70;13.75;;;;;;;17.92;79.52;100843.59;5068825;28;20081;-64
2022/08/14 05:43:29;;;;;;;18.05;12.35;;;;;;;18.01;79.15;100849.41;5068694;28;20074;-64
2022/08/14 05:45:54;;;;;;;19.23;12.45;;;;;;;18.11;78.69;100844.97;5068730;28;20029;-66
2022/08/14 05:48:19;;;;;;;17.92;11.90;;;;;;;18.24;78.79;100861.91;5072137;28;20081;-66
2022/08/14 05:50:45;;;;;;;21.13;13.35;;;;;;;18.34;77.43;100851.25;5071999;28;20036;-66
2022/08/14 05:53:10;;;;;;;20.67;13.70;;;;;;;18.44;76.73;100856.78;5072014;28;20031;-66
2022/08/14 05:55:36;;;;;;;18.15;12.88;;;;;;;18.54;76.41;100850.72;5071916;28;20487;-66
2022/08/14 05:58:05;;;;;;;21.85;13.23;;;;;;;18.66;76.61;100851.44;5071796;28;20461;-66
2022/08/14 06:00:36;;;;;;;19.48;12.95;;;;;;;18.76;76.24;100851.59;5072023;28;20024;-66
2022/08/14 06:03:03;;;;;;;19.55;11.80;;;;;;;18.85;77.03;100843.03;5071966;28;20025;-67
2022/08/14 06:05:29;;;;;;;21.38;14.02;;;;;;;18.91;75.56;100844.72;5071807;28;20051;-67
2022/08/14 06:07:56;;;;;;;20.08;14.02;;;;;;;19.02;75.37;100847.31;5071781;28;20480;-67
2022/08/14 06:10:21;;;;;;;23.58;13.32;;;;;;;19.10;75.17;100846.03;5071919;28;20272;-67
2022/08/14 06:12:46;;;;;;;21.33;13.13;;;;;;;19.20;74.86;100843.44;5071714;28;20107;-67
2022/08/14 06:15:12;;;;;;;18.65;12.50;;;;;;;19.29;75.36;100849.22;5071645;28;20170;-64
2022/08/14 06:17:51;;;;;;;19.00;12.48;;;;;;;19.40;73.98;100844.72;5071708;28;20107;-65
2022/08/14 06:20:17;;;;;;;19.15;14.20;;;;;;;19.48;74.32;100850.47;5071386;28;20097;-64
2022/08/14 06:22:44;;;;;;;20.98;13.70;;;;;;;19.58;74.47;100848.94;5071485;28;20029;-64
2022/08/14 06:25:11;;;;;;;21.75;14.23;;;;;;;19.67;74.56;100847.44;5071359;28;20032;-64
2022/08/14 06:27:38;;;;;;;23.23;16.30;;;;;;;19.75;74.18;100843.44;5071360;28;20032;-64
2022/08/14 06:30:10;;;;;;;21.73;15.13;;;;;;;19.86;72.68;100847.88;5071265;28;20044;-64
2022/08/14 06:32:36;;;;;;;21.63;16.55;;;;;;;19.95;73.11;100840.91;5071154;28;20103;-64
2022/08/14 06:35:05;;;;;;;20.48;13.38;;;;;;;20.06;72.61;100842.59;5071064;28;20144;-64
2022/08/14 06:37:40;;;;;;;18.75;13.15;;;;;;;20.10;72.71;100826.66;5071183;28;20119;-63
2022/08/14 06:40:07;;;;;;;19.98;13.40;;;;;;;20.24;72.43;100848.69;5071199;28;20062;-63
2022/08/14 06:42:32;;;;;;;19.95;13.40;;;;;;;20.32;72.29;100845.47;5071089;28;20586;-63
2022/08/14 06:45:00;;;;;;;21.73;14.20;;;;;;;20.40;72.99;100834.13;5071066;28;20061;-63
2022/08/14 06:47:25;;;;;;;17.70;12.23;;;;;;;20.49;71.68;100834.47;5071120;28;20044;-63
2022/08/14 06:49:50;;;;;;;19.20;13.18;;;;;;;20.57;72.41;100831.28;5071084;28;20036;-63
2022/08/14 06:52:16;;;;;;;19.50;13.35;;;;;;;20.66;70.95;100826.19;5071113;28;20029;-63
2022/08/14 06:54:41;;;;;;;18.02;12.48;;;;;;;20.76;70.76;100815.38;5070926;28;20041;-63
2022/08/14 06:57:07;;;;;;;18.70;13.13;;;;;;;20.87;70.22;100819.75;5070559;28;20093;-63
2022/08/14 06:59:32;;;;;;;18.25;12.73;;;;;;;20.93;70.11;100812.44;5069463;28;20085;-63
2022/08/14 07:07:34;;;;;;;17.73;11.60;;;;;;;21.28;68.94;100822.56;5070843;28;20120;-63
2022/08/14 07:10:00;;;;;;;17.92;11.65;;;;;;;21.37;69.29;100812.78;5069230;28;20395;-63
2022/08/14 07:12:25;;;;;;;19.42;10.70;;;;;;;21.45;68.37;100820.44;5070662;28;20111;-63
2022/08/14 07:14:50;;;;;;;19.38;11.23;;;;;;;21.58;68.40;100821.00;5070448;28;20067;-63
2022/08/14 07:17:16;;;;;;;15.25;9.65;;;;;;;21.65;66.68;100819.63;5070496;28;20419;-63
2022/08/14 07:19:41;;;;;;;15.60;9.55;;;;;;;21.74;66.73;100816.38;5070455;28;20396;-63
2022/08/14 07:22:06;;;;;;;16.95;9.80;;;;;;;21.81;66.54;100812.31;5070228;28;20111;-64
2022/08/14 07:24:32;;;;;;;16.73;10.15;;;;;;;21.89;66.35;100819.91;5070311;28;20108;-64
2022/08/14 07:26:57;;;;;;;16.20;9.82;;;;;;;21.98;65.39;100811.19;5070055;28;20040;-64
2022/08/14 07:29:22;;;;;;;15.50;10.38;;;;;;;22.08;66.20;100813.88;5070335;28;20491;-64
2022/08/14 07:31:48;;;;;;;15.93;9.68;;;;;;;22.17;64.46;100809.53;5068926;28;20115;-65
2022/08/14 07:34:13;;;;;;;16.00;8.85;;;;;;;22.28;63.90;100813.06;5070078;28;20125;-65
2022/08/14 07:36:38;;;;;;;14.00;8.90;;;;;;;22.31;62.82;100802.47;5069881;28;20051;-64
2022/08/14 07:39:04;;;;;;;13.65;9.85;;;;;;;22.43;63.47;100807.59;5070099;28;20038;-64
2022/08/14 07:41:30;;;;;;;13.38;8.98;;;;;;;22.50;63.49;100815.44;5069760;28;20032;-65
2022/08/14 07:43:55;;;;;;;14.07;8.38;;;;;;;22.58;64.16;100814.06;5069863;28;20032;-65
2022/08/14 07:46:21;;;;;;;12.20;8.40;;;;;;;22.64;63.32;100804.81;5069765;28;20487;-65
2022/08/14 07:48:47;;;;;;;18.20;8.43;;;;;;;22.75;63.40;100804.47;5069722;28;20032;-65
2022/08/14 07:51:12;;;;;;;13.90;8.77;;;;;;;22.84;61.99;100801.16;5069746;28;20067;-64
2022/08/14 07:53:39;;;;;;;15.07;9.88;;;;;;;22.94;61.79;100801.09;5069738;28;20032;-65
2022/08/14 07:56:04;;;;;;;13.20;9.18;;;;;;;23.01;62.80;100798.94;5069696;28;20024;-66
2022/08/14 07:58:30;;;;;;;15.32;8.95;;;;;;;23.06;63.75;100793.47;5069753;28;20047;-66
2022/08/14 08:00:56;;;;;;;13.23;8.75;;;;;;;23.10;62.32;100791.78;5069448;28;20043;-66
2022/08/14 08:03:23;;;;;;;18.13;10.60;;;;;;;23.23;62.74;100803.16;5069668;28;20030;-66
2022/08/14 08:05:49;;;;;;;14.45;8.68;;;;;;;23.35;61.82;100795.44;5069638;28;20044;-66
2022/08/14 08:08:15;;;;;;;15.68;8.65;;;;;;;23.62;60.11;100809.38;5069418;28;20032;-66
2022/08/14 08:10:42;;;;;;;12.88;8.95;;;;;;;24.12;59.57;100802.94;5069077;28;20024;-66
2022/08/14 08:13:20;;;;;;;15.23;9.40;;;;;;;26.25;55.68;100811.03;5069540;28;20031;-66
2022/08/14 08:15:56;;;;;;;13.68;8.77;;;;;;;28.77;49.37;100814.88;5069344;28;20028;-66
2022/08/14 08:18:22;;;;;;;14.10;8.38;;;;;;;31.09;41.90;100812.94;5069300;28;20028;-66
2022/08/14 08:20:53;;;;;;;13.27;8.93;;;;;;;32.34;39.08;100802.72;5069255;28;20111;-66
2022/08/14 08:23:21;;;;;;;14.30;8.95;;;;;;;33.35;36.56;100803.78;5069375;28;20039;-67
2022/08/14 08:25:50;;;;;;;12.07;8.18;;;;;;;34.04;34.58;100804.47;5069050;28;20040;-66
2022/08/14 08:28:21;;;;;;;12.10;8.85;;;;;;;34.63;32.84;100799.94;5069283;28;20028;-67
2022/08/14 08:30:57;;;;;;;12.43;8.43;;;;;;;35.07;33.26;100799.69;5069164;28;20036;-67
2022/08/14 08:33:26;;;;;;;11.40;8.43;;;;;;;35.46;31.97;100792.16;5069349;28;20553;-67
2022/08/14 08:35:53;;;;;;;12.18;9.13;;;;;;;35.86;32.07;100792.91;5069115;28;20060;-67
2022/08/14 08:38:23;;;;;;;13.98;8.20;;;;;;;36.34;31.40;100791.34;5069258;28;20031;-67
2022/08/14 08:40:50;;;;;;;12.02;7.32;;;;;;;36.64;30.11;100785.81;5069063;28;20708;-67
2022/08/14 08:43:23;;;;;;;12.23;8.25;;;;;;;37.12;29.10;100782.47;5069129;28;20361;-67
2022/08/14 08:45:59;;;;;;;10.88;7.65;;;;;;;37.43;30.32;100778.41;5068925;28;20044;-67
2022/08/14 08:48:29;;;;;;;10.18;7.63;;;;;;;37.48;28.24;100785.63;5069152;28;20490;-67
2022/08/14 08:51:00;;;;;;;12.27;7.85;;;;;;;37.18;30.07;100788.47;5069028;28;20523;-68
2022/08/14 08:53:31;;;;;;;11.30;8.18;;;;;;;36.48;29.71;100773.25;5069084;28;20024;-69
2022/08/14 08:55:57;;;;;;;11.52;7.63;;;;;;;34.79;32.36;100777.72;5068981;28;20024;-68
2022/08/14 08:58:22;;;;;;;30.02;8.98;;;;;;;32.93;34.72;100779.28;5068729;28;20040;-68
2022/08/14 09:00:50;;;;;;;10.95;8.32;;;;;;;31.61;37.05;100786.88;5068872;28;20024;-68
2022/08/14 09:03:19;;;;;;;14.00;7.65;;;;;;;30.62;39.90;100782.78;5069159;28;20394;-68
2022/08/14 09:06:02;;;;;;;12.27;8.18;;;;;;;29.87;41.08;100769.56;5068629;28;20119;-68
2022/08/14 09:08:30;;;;;;;12.52;8.75;;;;;;;29.22;42.19;100765.16;5068538;28;20043;-68
2022/08/14 09:10:58;;;;;;;11.30;8.40;;;;;;;28.79;43.44;100766.75;5068403;28;20025;-68
2022/08/14 09:13:28;;;;;;;12.05;8.20;;;;;;;28.52;44.51;100772.50;5068544;28;20090;-68
2022/08/14 09:15:54;;;;;;;11.60;7.87;;;;;;;28.34;46.57;100777.13;5068489;28;20163;-68
2022/08/14 09:18:21;;;;;;;12.93;8.40;;;;;;;28.21;45.93;100772.56;5068540;28;20028;-68
2022/08/14 09:20:52;;;;;;;13.82;8.60;;;;;;;28.09;47.29;100765.75;5070658;28;20032;-68
2022/08/14 09:23:18;;;;;;;11.73;7.95;;;;;;;27.91;46.01;100750.34;5072364;28;20035;-68
2022/08/14 09:25:46;;;;;;;11.00;7.57;;;;;;;27.72;46.72;100753.31;5072264;28;20468;-68
2022/08/14 09:28:14;;;;;;;11.55;7.97;;;;;;;27.50;46.34;100740.44;5072098;28;20123;-68
2022/08/14 09:30:48;;;;;;;13.05;7.57;;;;;;;27.49;47.06;100753.34;5072159;28;20476;-69
2022/08/14 09:33:35;;;;;;;13.43;7.43;;;;;;;27.48;47.16;100756.38;5072011;28;20021;-68
2022/08/14 09:36:09;;;;;;;12.45;8.20;;;;;;;27.44;46.58;100752.66;5071772;28;20143;-68
2022/08/14 09:38:41;;;;;;;12.93;8.02;;;;;;;27.52;47.48;100746.41;5072004;28;20028;-68
2022/08/14 09:41:12;;;;;;;10.38;6.88;;;;;;;27.59;47.91;100741.31;5071983;28;20122;-68
2022/08/14 09:43:55;;;;;;;9.90;7.97;;;;;;;27.62;46.72;100737.94;5071809;28;20035;-68
2022/08/14 09:46:21;;;;;;;12.25;8.35;;;;;;;27.69;46.74;100735.56;5068165;28;20021;-67
2022/08/14 09:48:57;;;;;;;10.15;7.53;;;;;;;27.79;46.59;100731.72;5066891;28;20570;-70
2022/08/14 09:51:24;;;;;;;13.00;8.13;;;;;;;27.88;47.40;100727.13;5067620;28;20050;-70
2022/08/14 09:54:04;;;;;;;13.43;8.85;;;;;;;27.92;47.71;100728.09;5067602;28;20025;-69
2022/08/14 09:56:50;;;;;;;15.18;8.27;;;;;;;27.93;47.88;100726.19;5067260;28;20024;-69
2022/08/14 09:59:21;;;;;;;14.48;8.85;;;;;;;27.93;47.47;100724.25;5067368;28;20037;-69
2022/08/14 10:01:48;;;;;;;11.07;7.87;;;;;;;27.96;45.45;100714.56;5082464;28;20035;-69
2022/08/14 10:04:23;;;;;;;10.75;7.32;;;;;;;28.00;46.83;100707.31;5067389;28;20251;-69
2022/08/14 10:06:50;;;;;;;12.15;7.50;;;;;;;28.08;47.68;100709.28;5066662;28;20404;-69
2022/08/14 10:09:16;;;;;;;9.90;7.00;;;;;;;28.17;46.29;100710.13;5067187;28;20042;-68
2022/08/14 10:11:56;;;;;;;10.88;6.53;;;;;;;28.21;45.81;100693.81;5067164;28;20020;-75
2022/08/14 10:14:24;;;;;;;8.98;6.95;;;;;;;28.35;45.78;100693.72;5067297;28;20399;-70
2022/08/14 10:16:53;;;;;;;10.80;6.63;;;;;;;28.40;43.71;100696.28;5066614;28;20115;-69
2022/08/14 10:19:21;;;;;;;11.32;7.70;;;;;;;28.48;43.88;100695.53;5067102;28;20020;-69
2022/08/14 10:22:07;;;;;;;9.43;6.82;;;;;;;28.59;44.21;100705.06;5067493;28;20047;-69
2022/08/14 10:24:43;;;;;;;9.13;6.47;;;;;;;28.60;44.17;100692.94;5066725;28;20034;-69
2022/08/14 10:27:15;;;;;;;10.77;7.85;;;;;;;28.64;43.71;100684.88;5066441;28;20032;-69
2022/08/14 10:29:43;;;;;;;10.27;7.68;;;;;;;28.68;43.79;100680.34;5066859;28;20028;-69
2022/08/14 10:32:10;;;;;;;10.18;6.97;;;;;;;28.77;43.21;100683.09;5066478;28;20025;-70
2022/08/14 10:34:38;;;;;;;10.25;6.55;;;;;;;28.83;43.59;100677.13;5066889;28;20391;-70
2022/08/14 10:37:06;;;;;;;10.38;7.13;;;;;;;28.83;43.15;100679.06;5065866;28;20066;-69
2022/08/14 10:39:34;;;;;;;8.98;6.45;;;;;;;28.78;44.96;100682.78;5066726;28;20046;-70
2022/08/14 10:42:04;;;;;;;9.45;5.93;;;;;;;28.74;43.35;100672.75;5066960;28;20025;-70
2022/08/14 10:44:37;;;;;;;10.37;6.70;;;;;;;28.82;43.49;100660.97;5066523;28;20081;-70
2022/08/14 10:47:10;;;;;;;8.52;5.90;;;;;;;28.92;43.48;100666.09;5065977;28;20115;-70
2022/08/14 10:49:54;;;;;;;8.63;6.18;;;;;;;29.06;43.67;100660.50;5066577;28;20042;-69
2022/08/14 10:52:23;;;;;;;9.65;6.85;;;;;;;29.18;42.95;100662.53;5066277;28;20673;-70
2022/08/14 10:54:50;;;;;;;9.77;6.82;;;;;;;29.21;42.72;100648.97;5066260;28;20031;-69
2022/08/14 10:57:21;;;;;;;9.00;6.53;;;;;;;29.27;41.90;100652.34;5065956;28;20024;-70
2022/08/14 10:59:59;;;;;;;7.93;5.93;;;;;;;29.38;42.20;100652.81;5066221;28;20456;-69
2022/08/14 11:02:29;;;;;;;9.05;6.35;;;;;;;29.49;41.00;100660.34;5066013;28;20518;-69
2022/08/14 11:05:14;;;;;;;12.50;7.53;;;;;;;29.55;40.99;100646.41;5066413;28;20047;-70
2022/08/14 11:07:53;;;;;;;8.20;5.63;;;;;;;29.60;40.32;100640.75;5065855;28;20028;-70
2022/08/14 11:10:18;;;;;;;8.73;6.45;;;;;;;29.77;39.88;100650.91;5066429;28;20028;-70
2022/08/14 11:12:46;;;;;;;6.43;5.70;;;;;;;29.82;40.41;100648.75;5065869;28;20017;-68
2022/08/14 11:15:17;;;;;;;8.15;5.28;;;;;;;29.83;36.93;100647.59;5065774;28;20059;-70
2022/08/14 11:17:46;;;;;;;9.05;5.68;;;;;;;29.83;38.60;100644.84;5065402;28;20033;-70
2022/08/14 11:20:12;;;;;;;9.73;5.70;;;;;;;29.92;37.31;100647.56;5065662;28;20013;-68
2022/08/14 11:22:40;;;;;;;7.82;5.53;;;;;;;30.05;37.64;100648.44;5065976;28;20056;-68
2022/08/14 11:25:07;;;;;;;7.30;5.03;;;;;;;30.15;36.72;100651.63;5064975;28;20475;-67
2022/08/14 11:27:33;;;;;;;6.93;5.13;;;;;;;30.21;36.08;100654.16;5064937;28;20028;-68
2022/08/14 11:30:08;;;;;;;5.75;5.10;;;;;;;30.26;37.86;100643.81;5068668;28;20028;-70
2022/08/14 11:32:35;;;;;;;9.68;5.40;;;;;;;30.40;35.77;100640.81;5069989;28;20048;-69
2022/08/14 11:35:04;;;;;;;11.07;5.75;;;;;;;30.50;36.83;100632.13;5069668;28;20131;-70
2022/08/14 11:37:32;;;;;;;8.40;5.07;;;;;;;30.56;36.80;100633.53;5069758;28;20066;-70